sensor_id;sensor_type;location;lat;lon;timestamp;temperature;humidity
23156;DHT22;11746;50.876;4.246;2023-04-06T00:00:22;10.10;97.80
23156;DHT22;11746;50.876;4.246;2023-04-06T00:02:50;10.10;97.30
23156;DHT22;11746;50.876;4.246;2023-04-06T00:05:19;10.10;97.20
23156;DHT22;11746;50.876;4.246;2023-04-06T00:07:45;10.20;97.20
23156;DHT22;11746;50.876;4.246;2023-04-06T00:10:13;10.20;97.20
23156;DHT22;11746;50.876;4.246;2023-04-06T00:12:39;10.20;97.40
23156;DHT22;11746;50.876;4.246;2023-04-06T00:15:05;10.20;97.20
23156;DHT22;11746;50.876;4.246;2023-04-06T00:17:34;10.20;96.50
23156;DHT22;11746;50.876;4.246;2023-04-06T00:19:59;10.20;96.80
23156;DHT22;11746;50.876;4.246;2023-04-06T00:22:25;10.20;97.10
23156;DHT22;11746;50.876;4.246;2023-04-06T00:24:51;10.10;97.30
23156;DHT22;11746;50.876;4.246;2023-04-06T00:27:19;10.10;97.30
23156;DHT22;11746;50.876;4.246;2023-04-06T00:29:45;10.10;97.50
23156;DHT22;11746;50.876;4.246;2023-04-06T00:32:13;10.10;97.30
23156;DHT22;11746;50.876;4.246;2023-04-06T00:34:39;10.10;97.10
23156;DHT22;11746;50.876;4.246;2023-04-06T00:37:06;10.10;97.70
23156;DHT22;11746;50.876;4.246;2023-04-06T00:39:37;10.20;97.70
23156;DHT22;11746;50.876;4.246;2023-04-06T00:42:10;10.30;97.40
23156;DHT22;11746;50.876;4.246;2023-04-06T00:44:37;10.30;97.10
23156;DHT22;11746;50.876;4.246;2023-04-06T00:47:02;10.20;97.60
23156;DHT22;11746;50.876;4.246;2023-04-06T00:49:28;10.20;97.70
23156;DHT22;11746;50.876;4.246;2023-04-06T00:51:54;10.00;98.30
23156;DHT22;11746;50.876;4.246;2023-04-06T00:54:19;10.00;98.40
23156;DHT22;11746;50.876;4.246;2023-04-06T00:56:47;10.00;98.40
23156;DHT22;11746;50.876;4.246;2023-04-06T00:59:13;10.00;98.20
23156;DHT22;11746;50.876;4.246;2023-04-06T01:01:39;9.90;98.40
23156;DHT22;11746;50.876;4.246;2023-04-06T01:04:04;9.90;98.70
23156;DHT22;11746;50.876;4.246;2023-04-06T01:06:34;9.90;98.80
23156;DHT22;11746;50.876;4.246;2023-04-06T01:09:00;9.80;98.60
23156;DHT22;11746;50.876;4.246;2023-04-06T01:11:26;9.90;98.60
23156;DHT22;11746;50.876;4.246;2023-04-06T01:13:55;10.00;98.50
23156;DHT22;11746;50.876;4.246;2023-04-06T01:16:21;10.00;98.50
23156;DHT22;11746;50.876;4.246;2023-04-06T01:18:49;10.00;98.40
23156;DHT22;11746;50.876;4.246;2023-04-06T01:21:18;9.90;99.20
23156;DHT22;11746;50.876;4.246;2023-04-06T01:23:46;9.90;98.60
23156;DHT22;11746;50.876;4.246;2023-04-06T01:26:13;9.80;99.10
23156;DHT22;11746;50.876;4.246;2023-04-06T01:28:38;9.80;98.90
23156;DHT22;11746;50.876;4.246;2023-04-06T01:31:08;9.70;99.00
23156;DHT22;11746;50.876;4.246;2023-04-06T01:33:34;9.70;98.90
23156;DHT22;11746;50.876;4.246;2023-04-06T01:36:00;9.70;99.10
23156;DHT22;11746;50.876;4.246;2023-04-06T01:38:26;9.70;99.10
23156;DHT22;11746;50.876;4.246;2023-04-06T01:40:53;9.70;99.50
23156;DHT22;11746;50.876;4.246;2023-04-06T01:43:19;9.60;98.90
23156;DHT22;11746;50.876;4.246;2023-04-06T01:45:49;9.70;99.30
23156;DHT22;11746;50.876;4.246;2023-04-06T01:48:17;9.60;99.00
23156;DHT22;11746;50.876;4.246;2023-04-06T01:50:42;9.50;99.50
23156;DHT22;11746;50.876;4.246;2023-04-06T01:53:08;9.40;99.90
23156;DHT22;11746;50.876;4.246;2023-04-06T01:55:36;9.30;99.90
23156;DHT22;11746;50.876;4.246;2023-04-06T01:58:02;9.40;99.90
23156;DHT22;11746;50.876;4.246;2023-04-06T02:00:27;9.50;99.90
23156;DHT22;11746;50.876;4.246;2023-04-06T02:02:55;9.50;99.80
23156;DHT22;11746;50.876;4.246;2023-04-06T02:05:23;9.50;99.90
23156;DHT22;11746;50.876;4.246;2023-04-06T02:07:49;9.40;99.90
23156;DHT22;11746;50.876;4.246;2023-04-06T02:10:15;9.50;99.90
23156;DHT22;11746;50.876;4.246;2023-04-06T02:12:40;9.50;99.90
23156;DHT22;11746;50.876;4.246;2023-04-06T02:15:09;9.50;99.90
23156;DHT22;11746;50.876;4.246;2023-04-06T02:17:38;9.40;99.90
23156;DHT22;11746;50.876;4.246;2023-04-06T02:20:05;9.40;99.90
23156;DHT22;11746;50.876;4.246;2023-04-06T02:22:31;9.40;99.90
23156;DHT22;11746;50.876;4.246;2023-04-06T02:24:56;9.40;99.90
23156;DHT22;11746;50.876;4.246;2023-04-06T02:27:22;9.50;99.90
23156;DHT22;11746;50.876;4.246;2023-04-06T02:29:53;9.30;99.90
23156;DHT22;11746;50.876;4.246;2023-04-06T02:32:18;9.30;99.90
23156;DHT22;11746;50.876;4.246;2023-04-06T02:34:49;9.30;99.90
23156;DHT22;11746;50.876;4.246;2023-04-06T02:37:19;9.20;99.90
23156;DHT22;11746;50.876;4.246;2023-04-06T02:39:48;9.20;99.90
23156;DHT22;11746;50.876;4.246;2023-04-06T02:42:13;9.20;99.90
23156;DHT22;11746;50.876;4.246;2023-04-06T02:44:42;9.20;99.90
23156;DHT22;11746;50.876;4.246;2023-04-06T02:47:08;9.30;99.90
23156;DHT22;11746;50.876;4.246;2023-04-06T02:49:33;9.30;99.90
23156;DHT22;11746;50.876;4.246;2023-04-06T02:51:59;9.30;99.90
23156;DHT22;11746;50.876;4.246;2023-04-06T02:54:25;9.20;99.90
23156;DHT22;11746;50.876;4.246;2023-04-06T02:56:57;9.20;99.90
23156;DHT22;11746;50.876;4.246;2023-04-06T02:59:25;9.10;99.90
23156;DHT22;11746;50.876;4.246;2023-04-06T03:01:51;9.20;99.90
23156;DHT22;11746;50.876;4.246;2023-04-06T03:04:17;9.10;99.90
23156;DHT22;11746;50.876;4.246;2023-04-06T03:06:42;9.10;99.90
23156;DHT22;11746;50.876;4.246;2023-04-06T03:09:08;9.10;99.90
23156;DHT22;11746;50.876;4.246;2023-04-06T03:11:36;9.20;99.90
23156;DHT22;11746;50.876;4.246;2023-04-06T03:14:04;9.10;99.90
23156;DHT22;11746;50.876;4.246;2023-04-06T03:16:30;9.10;99.90
23156;DHT22;11746;50.876;4.246;2023-04-06T03:18:55;9.00;99.90
23156;DHT22;11746;50.876;4.246;2023-04-06T03:21:21;9.00;99.90
23156;DHT22;11746;50.876;4.246;2023-04-06T03:23:47;9.00;99.90
23156;DHT22;11746;50.876;4.246;2023-04-06T03:26:15;8.90;99.90
23156;DHT22;11746;50.876;4.246;2023-04-06T03:28:40;8.90;99.90
23156;DHT22;11746;50.876;4.246;2023-04-06T03:31:06;8.90;99.90
23156;DHT22;11746;50.876;4.246;2023-04-06T03:33:34;8.90;99.90
23156;DHT22;11746;50.876;4.246;2023-04-06T03:35:59;9.00;99.90
23156;DHT22;11746;50.876;4.246;2023-04-06T03:38:27;8.90;99.90
23156;DHT22;11746;50.876;4.246;2023-04-06T03:40:53;9.00;99.90
23156;DHT22;11746;50.876;4.246;2023-04-06T03:43:21;8.90;99.90
23156;DHT22;11746;50.876;4.246;2023-04-06T03:45:48;8.90;99.90
23156;DHT22;11746;50.876;4.246;2023-04-06T03:48:17;8.90;99.90
23156;DHT22;11746;50.876;4.246;2023-04-06T03:50:42;8.80;99.90
23156;DHT22;11746;50.876;4.246;2023-04-06T03:53:10;8.80;99.90
23156;DHT22;11746;50.876;4.246;2023-04-06T03:55:40;8.80;99.90
23156;DHT22;11746;50.876;4.246;2023-04-06T03:58:09;8.80;99.90
23156;DHT22;11746;50.876;4.246;2023-04-06T04:00:37;8.80;99.90
23156;DHT22;11746;50.876;4.246;2023-04-06T04:03:03;8.80;99.90
23156;DHT22;11746;50.876;4.246;2023-04-06T04:05:28;8.90;99.90
23156;DHT22;11746;50.876;4.246;2023-04-06T04:07:57;8.80;99.90
23156;DHT22;11746;50.876;4.246;2023-04-06T04:10:25;8.70;99.90
23156;DHT22;11746;50.876;4.246;2023-04-06T04:12:53;8.50;99.90
23156;DHT22;11746;50.876;4.246;2023-04-06T04:15:23;8.50;99.90
23156;DHT22;11746;50.876;4.246;2023-04-06T04:17:48;8.50;99.90
23156;DHT22;11746;50.876;4.246;2023-04-06T04:20:16;8.40;99.90
23156;DHT22;11746;50.876;4.246;2023-04-06T04:22:42;8.50;99.90
23156;DHT22;11746;50.876;4.246;2023-04-06T04:25:08;8.40;99.90
23156;DHT22;11746;50.876;4.246;2023-04-06T04:27:34;8.50;99.90
23156;DHT22;11746;50.876;4.246;2023-04-06T04:30:05;8.60;99.90
23156;DHT22;11746;50.876;4.246;2023-04-06T04:32:33;8.60;99.90
23156;DHT22;11746;50.876;4.246;2023-04-06T04:34:59;8.60;99.90
23156;DHT22;11746;50.876;4.246;2023-04-06T04:37:28;8.60;99.90
23156;DHT22;11746;50.876;4.246;2023-04-06T04:39:53;8.60;99.90
23156;DHT22;11746;50.876;4.246;2023-04-06T04:42:19;8.70;99.90
23156;DHT22;11746;50.876;4.246;2023-04-06T04:44:47;8.80;99.90
23156;DHT22;11746;50.876;4.246;2023-04-06T04:47:15;8.80;99.90
23156;DHT22;11746;50.876;4.246;2023-04-06T04:49:41;8.60;99.90
23156;DHT22;11746;50.876;4.246;2023-04-06T04:52:06;8.60;99.90
23156;DHT22;11746;50.876;4.246;2023-04-06T04:54:34;8.60;99.90
23156;DHT22;11746;50.876;4.246;2023-04-06T04:57:03;8.70;99.90
23156;DHT22;11746;50.876;4.246;2023-04-06T04:59:28;8.50;99.90
23156;DHT22;11746;50.876;4.246;2023-04-06T05:01:55;8.60;99.90
23156;DHT22;11746;50.876;4.246;2023-04-06T05:04:23;8.60;99.90
23156;DHT22;11746;50.876;4.246;2023-04-06T05:06:51;8.50;99.90
23156;DHT22;11746;50.876;4.246;2023-04-06T05:09:27;8.40;99.90
23156;DHT22;11746;50.876;4.246;2023-04-06T05:11:56;8.50;99.90
23156;DHT22;11746;50.876;4.246;2023-04-06T05:14:24;8.70;99.90
23156;DHT22;11746;50.876;4.246;2023-04-06T05:16:51;8.50;99.90
23156;DHT22;11746;50.876;4.246;2023-04-06T05:19:16;8.40;99.90
23156;DHT22;11746;50.876;4.246;2023-04-06T05:21:42;8.30;99.90
23156;DHT22;11746;50.876;4.246;2023-04-06T05:24:10;8.30;99.90
23156;DHT22;11746;50.876;4.246;2023-04-06T05:26:36;8.20;99.90
23156;DHT22;11746;50.876;4.246;2023-04-06T05:29:02;8.20;99.90
23156;DHT22;11746;50.876;4.246;2023-04-06T05:31:28;8.30;99.90
23156;DHT22;11746;50.876;4.246;2023-04-06T05:33:54;8.30;99.90
23156;DHT22;11746;50.876;4.246;2023-04-06T05:36:23;8.30;99.90
23156;DHT22;11746;50.876;4.246;2023-04-06T05:38:50;8.40;99.90
23156;DHT22;11746;50.876;4.246;2023-04-06T05:41:18;8.40;99.90
23156;DHT22;11746;50.876;4.246;2023-04-06T05:43:44;8.40;99.90
23156;DHT22;11746;50.876;4.246;2023-04-06T05:46:12;8.40;99.90
23156;DHT22;11746;50.876;4.246;2023-04-06T05:48:40;8.50;99.90
23156;DHT22;11746;50.876;4.246;2023-04-06T05:51:05;8.50;99.90
23156;DHT22;11746;50.876;4.246;2023-04-06T05:53:33;8.60;99.90
23156;DHT22;11746;50.876;4.246;2023-04-06T05:56:02;8.60;99.90
23156;DHT22;11746;50.876;4.246;2023-04-06T05:58:28;8.70;99.90
23156;DHT22;11746;50.876;4.246;2023-04-06T06:01:03;8.60;99.90
23156;DHT22;11746;50.876;4.246;2023-04-06T06:03:30;8.70;99.90
23156;DHT22;11746;50.876;4.246;2023-04-06T06:06:05;8.80;99.90
23156;DHT22;11746;50.876;4.246;2023-04-06T06:08:33;8.70;99.90
23156;DHT22;11746;50.876;4.246;2023-04-06T06:11:01;8.80;99.90
23156;DHT22;11746;50.876;4.246;2023-04-06T06:13:30;8.80;99.90
23156;DHT22;11746;50.876;4.246;2023-04-06T06:15:55;8.80;99.90
23156;DHT22;11746;50.876;4.246;2023-04-06T06:18:23;8.70;99.90
23156;DHT22;11746;50.876;4.246;2023-04-06T06:20:51;8.60;99.90
23156;DHT22;11746;50.876;4.246;2023-04-06T06:23:17;8.50;99.90
23156;DHT22;11746;50.876;4.246;2023-04-06T06:25:45;8.50;99.90
23156;DHT22;11746;50.876;4.246;2023-04-06T06:28:16;8.50;99.90
23156;DHT22;11746;50.876;4.246;2023-04-06T06:30:41;8.60;99.90
23156;DHT22;11746;50.876;4.246;2023-04-06T06:33:09;8.50;99.90
23156;DHT22;11746;50.876;4.246;2023-04-06T06:35:35;8.40;99.90
23156;DHT22;11746;50.876;4.246;2023-04-06T06:38:01;8.30;99.90
23156;DHT22;11746;50.876;4.246;2023-04-06T06:40:28;8.30;99.90
23156;DHT22;11746;50.876;4.246;2023-04-06T06:42:54;8.30;99.90
23156;DHT22;11746;50.876;4.246;2023-04-06T06:45:20;8.40;99.90
23156;DHT22;11746;50.876;4.246;2023-04-06T06:47:48;8.30;99.90
23156;DHT22;11746;50.876;4.246;2023-04-06T06:50:16;8.30;99.90
23156;DHT22;11746;50.876;4.246;2023-04-06T06:52:42;8.30;99.90
23156;DHT22;11746;50.876;4.246;2023-04-06T06:55:10;8.40;99.90
23156;DHT22;11746;50.876;4.246;2023-04-06T06:57:36;8.30;99.90
23156;DHT22;11746;50.876;4.246;2023-04-06T07:00:02;8.40;99.90
23156;DHT22;11746;50.876;4.246;2023-04-06T07:02:30;8.50;99.90
23156;DHT22;11746;50.876;4.246;2023-04-06T07:04:56;8.60;99.90
23156;DHT22;11746;50.876;4.246;2023-04-06T07:07:23;8.60;99.90
23156;DHT22;11746;50.876;4.246;2023-04-06T07:09:49;8.60;99.90
23156;DHT22;11746;50.876;4.246;2023-04-06T07:12:14;8.70;99.90
23156;DHT22;11746;50.876;4.246;2023-04-06T07:14:44;8.70;99.90
23156;DHT22;11746;50.876;4.246;2023-04-06T07:17:10;8.60;99.90
23156;DHT22;11746;50.876;4.246;2023-04-06T07:19:36;8.50;99.90
23156;DHT22;11746;50.876;4.246;2023-04-06T07:22:04;8.50;99.90
23156;DHT22;11746;50.876;4.246;2023-04-06T07:24:30;8.60;99.90
23156;DHT22;11746;50.876;4.246;2023-04-06T07:26:55;8.70;99.90
23156;DHT22;11746;50.876;4.246;2023-04-06T07:29:24;8.70;99.90
23156;DHT22;11746;50.876;4.246;2023-04-06T07:31:49;8.60;99.90
23156;DHT22;11746;50.876;4.246;2023-04-06T07:34:17;8.70;99.90
23156;DHT22;11746;50.876;4.246;2023-04-06T07:36:45;8.70;99.90
23156;DHT22;11746;50.876;4.246;2023-04-06T07:39:11;8.80;99.90
23156;DHT22;11746;50.876;4.246;2023-04-06T07:41:36;8.70;99.90
23156;DHT22;11746;50.876;4.246;2023-04-06T07:44:05;8.70;99.90
23156;DHT22;11746;50.876;4.246;2023-04-06T07:46:33;8.60;99.90
23156;DHT22;11746;50.876;4.246;2023-04-06T07:49:01;8.60;99.90
23156;DHT22;11746;50.876;4.246;2023-04-06T07:51:27;8.70;99.90
23156;DHT22;11746;50.876;4.246;2023-04-06T07:53:53;8.50;99.90
23156;DHT22;11746;50.876;4.246;2023-04-06T07:56:22;8.70;99.90
23156;DHT22;11746;50.876;4.246;2023-04-06T07:58:48;8.80;99.90
23156;DHT22;11746;50.876;4.246;2023-04-06T08:01:14;8.70;99.90
23156;DHT22;11746;50.876;4.246;2023-04-06T08:03:41;8.70;99.90
23156;DHT22;11746;50.876;4.246;2023-04-06T08:06:09;8.70;99.90
23156;DHT22;11746;50.876;4.246;2023-04-06T08:08:37;8.90;99.90
23156;DHT22;11746;50.876;4.246;2023-04-06T08:11:05;8.80;99.90
23156;DHT22;11746;50.876;4.246;2023-04-06T08:13:34;8.70;99.90
23156;DHT22;11746;50.876;4.246;2023-04-06T08:16:00;8.70;99.90
23156;DHT22;11746;50.876;4.246;2023-04-06T08:18:26;8.80;99.90
23156;DHT22;11746;50.876;4.246;2023-04-06T08:20:54;8.70;99.90
23156;DHT22;11746;50.876;4.246;2023-04-06T08:23:22;8.80;99.90
23156;DHT22;11746;50.876;4.246;2023-04-06T08:25:48;8.80;99.90
23156;DHT22;11746;50.876;4.246;2023-04-06T08:28:18;8.80;99.90
23156;DHT22;11746;50.876;4.246;2023-04-06T08:30:44;8.70;99.90
23156;DHT22;11746;50.876;4.246;2023-04-06T08:33:12;8.70;99.90
23156;DHT22;11746;50.876;4.246;2023-04-06T08:35:38;8.70;99.90
23156;DHT22;11746;50.876;4.246;2023-04-06T08:38:03;8.70;99.90
23156;DHT22;11746;50.876;4.246;2023-04-06T08:40:29;8.80;99.90
23156;DHT22;11746;50.876;4.246;2023-04-06T08:42:58;8.80;99.90
23156;DHT22;11746;50.876;4.246;2023-04-06T08:45:25;8.80;99.90
23156;DHT22;11746;50.876;4.246;2023-04-06T08:47:53;8.70;99.90
23156;DHT22;11746;50.876;4.246;2023-04-06T08:50:22;8.70;99.90
23156;DHT22;11746;50.876;4.246;2023-04-06T08:52:49;8.70;99.90
23156;DHT22;11746;50.876;4.246;2023-04-06T08:55:20;8.90;99.90
23156;DHT22;11746;50.876;4.246;2023-04-06T08:57:52;8.90;99.90
23156;DHT22;11746;50.876;4.246;2023-04-06T09:00:24;9.20;99.90
23156;DHT22;11746;50.876;4.246;2023-04-06T09:02:54;9.20;99.90
23156;DHT22;11746;50.876;4.246;2023-04-06T09:05:25;9.00;99.90
23156;DHT22;11746;50.876;4.246;2023-04-06T09:07:54;9.00;99.90
23156;DHT22;11746;50.876;4.246;2023-04-06T09:10:19;8.90;99.90
23156;DHT22;11746;50.876;4.246;2023-04-06T09:12:46;8.90;99.90
23156;DHT22;11746;50.876;4.246;2023-04-06T09:15:21;8.90;99.90
23156;DHT22;11746;50.876;4.246;2023-04-06T09:17:50;8.90;99.90
23156;DHT22;11746;50.876;4.246;2023-04-06T09:20:22;8.90;99.90
23156;DHT22;11746;50.876;4.246;2023-04-06T09:22:50;8.80;99.90
23156;DHT22;11746;50.876;4.246;2023-04-06T09:25:20;8.90;99.90
23156;DHT22;11746;50.876;4.246;2023-04-06T09:27:46;8.80;99.90
23156;DHT22;11746;50.876;4.246;2023-04-06T09:30:12;8.90;99.90
23156;DHT22;11746;50.876;4.246;2023-04-06T09:32:49;8.90;99.90
23156;DHT22;11746;50.876;4.246;2023-04-06T09:35:15;8.90;99.90
23156;DHT22;11746;50.876;4.246;2023-04-06T09:37:44;9.00;99.90
23156;DHT22;11746;50.876;4.246;2023-04-06T09:40:11;9.00;99.90
23156;DHT22;11746;50.876;4.246;2023-04-06T09:42:37;9.10;99.90
23156;DHT22;11746;50.876;4.246;2023-04-06T09:45:03;9.00;99.90
23156;DHT22;11746;50.876;4.246;2023-04-06T09:47:33;8.90;99.90
23156;DHT22;11746;50.876;4.246;2023-04-06T09:50:02;8.90;99.90
23156;DHT22;11746;50.876;4.246;2023-04-06T09:52:37;8.90;99.90
23156;DHT22;11746;50.876;4.246;2023-04-06T09:55:05;9.00;99.90
23156;DHT22;11746;50.876;4.246;2023-04-06T10:00:07;9.00;99.90
23156;DHT22;11746;50.876;4.246;2023-04-06T10:02:48;8.90;99.90
23156;DHT22;11746;50.876;4.246;2023-04-06T10:05:23;8.90;99.90
23156;DHT22;11746;50.876;4.246;2023-04-06T10:07:54;8.90;99.90
23156;DHT22;11746;50.876;4.246;2023-04-06T10:10:23;9.00;99.90
23156;DHT22;11746;50.876;4.246;2023-04-06T10:12:51;9.10;99.90
23156;DHT22;11746;50.876;4.246;2023-04-06T10:15:17;9.10;99.90
23156;DHT22;11746;50.876;4.246;2023-04-06T10:17:43;9.00;99.90
23156;DHT22;11746;50.876;4.246;2023-04-06T10:20:16;8.90;99.90
23156;DHT22;11746;50.876;4.246;2023-04-06T10:23:01;9.00;99.90
23156;DHT22;11746;50.876;4.246;2023-04-06T10:25:33;8.90;99.90
23156;DHT22;11746;50.876;4.246;2023-04-06T10:28:06;8.80;99.90
23156;DHT22;11746;50.876;4.246;2023-04-06T10:30:33;8.90;99.90
23156;DHT22;11746;50.876;4.246;2023-04-06T10:32:59;8.80;99.90
23156;DHT22;11746;50.876;4.246;2023-04-06T10:35:36;8.90;99.90
23156;DHT22;11746;50.876;4.246;2023-04-06T10:38:04;9.20;99.90
23156;DHT22;11746;50.876;4.246;2023-04-06T10:40:30;9.20;99.90
23156;DHT22;11746;50.876;4.246;2023-04-06T10:43:13;9.00;99.90
23156;DHT22;11746;50.876;4.246;2023-04-06T10:45:41;9.10;99.90
23156;DHT22;11746;50.876;4.246;2023-04-06T10:48:15;9.00;99.90
23156;DHT22;11746;50.876;4.246;2023-04-06T10:50:46;9.00;99.90
23156;DHT22;11746;50.876;4.246;2023-04-06T10:53:24;9.00;99.90
23156;DHT22;11746;50.876;4.246;2023-04-06T10:55:51;9.00;99.90
23156;DHT22;11746;50.876;4.246;2023-04-06T10:58:24;9.10;99.90
23156;DHT22;11746;50.876;4.246;2023-04-06T11:00:50;9.10;99.90
23156;DHT22;11746;50.876;4.246;2023-04-06T11:03:17;9.00;99.90
23156;DHT22;11746;50.876;4.246;2023-04-06T11:05:50;9.10;99.90
23156;DHT22;11746;50.876;4.246;2023-04-06T11:08:30;9.20;99.90
23156;DHT22;11746;50.876;4.246;2023-04-06T11:11:10;9.20;99.90
23156;DHT22;11746;50.876;4.246;2023-04-06T11:13:52;9.20;99.90
23156;DHT22;11746;50.876;4.246;2023-04-06T11:19:12;9.10;99.90
23156;DHT22;11746;50.876;4.246;2023-04-06T11:21:42;9.20;99.90
23156;DHT22;11746;50.876;4.246;2023-04-06T11:24:21;9.20;99.90
23156;DHT22;11746;50.876;4.246;2023-04-06T11:29:27;9.40;99.90
23156;DHT22;11746;50.876;4.246;2023-04-06T11:31:58;9.40;99.90
23156;DHT22;11746;50.876;4.246;2023-04-06T11:34:25;9.30;99.90
23156;DHT22;11746;50.876;4.246;2023-04-06T11:36:58;9.20;99.90
23156;DHT22;11746;50.876;4.246;2023-04-06T11:39:26;9.10;99.90
23156;DHT22;11746;50.876;4.246;2023-04-06T11:41:59;9.20;99.90
23156;DHT22;11746;50.876;4.246;2023-04-06T11:44:49;9.20;99.90
23156;DHT22;11746;50.876;4.246;2023-04-06T11:47:15;9.10;99.90
23156;DHT22;11746;50.876;4.246;2023-04-06T11:49:43;9.00;99.90
23156;DHT22;11746;50.876;4.246;2023-04-06T11:52:21;9.10;99.90
23156;DHT22;11746;50.876;4.246;2023-04-06T11:54:51;9.00;99.90
23156;DHT22;11746;50.876;4.246;2023-04-06T11:57:21;9.10;99.90
23156;DHT22;11746;50.876;4.246;2023-04-06T11:59:48;9.10;99.90
23156;DHT22;11746;50.876;4.246;2023-04-06T12:02:14;9.20;99.90
23156;DHT22;11746;50.876;4.246;2023-04-06T12:04:39;9.40;99.90
23156;DHT22;11746;50.876;4.246;2023-04-06T12:07:07;9.40;99.90
23156;DHT22;11746;50.876;4.246;2023-04-06T12:09:38;9.40;99.90
23156;DHT22;11746;50.876;4.246;2023-04-06T12:12:06;9.50;99.90
23156;DHT22;11746;50.876;4.246;2023-04-06T12:14:32;9.40;99.90
23156;DHT22;11746;50.876;4.246;2023-04-06T12:16:58;9.40;99.90
23156;DHT22;11746;50.876;4.246;2023-04-06T12:19:23;9.40;99.90
23156;DHT22;11746;50.876;4.246;2023-04-06T12:21:52;9.40;99.90
23156;DHT22;11746;50.876;4.246;2023-04-06T12:24:18;9.50;99.90
23156;DHT22;11746;50.876;4.246;2023-04-06T12:26:44;9.60;99.90
23156;DHT22;11746;50.876;4.246;2023-04-06T12:29:10;9.30;99.90
23156;DHT22;11746;50.876;4.246;2023-04-06T12:31:38;9.40;99.90
23156;DHT22;11746;50.876;4.246;2023-04-06T12:34:06;9.40;99.90
23156;DHT22;11746;50.876;4.246;2023-04-06T12:36:32;9.40;99.90
23156;DHT22;11746;50.876;4.246;2023-04-06T12:38:58;9.40;99.90
23156;DHT22;11746;50.876;4.246;2023-04-06T12:41:28;9.40;99.90
23156;DHT22;11746;50.876;4.246;2023-04-06T12:43:56;9.30;99.90
23156;DHT22;11746;50.876;4.246;2023-04-06T12:46:25;9.20;99.90
23156;DHT22;11746;50.876;4.246;2023-04-06T12:48:51;9.10;99.90
23156;DHT22;11746;50.876;4.246;2023-04-06T12:51:21;9.10;99.90
23156;DHT22;11746;50.876;4.246;2023-04-06T12:53:50;9.00;99.90
23156;DHT22;11746;50.876;4.246;2023-04-06T12:56:17;9.00;99.90
23156;DHT22;11746;50.876;4.246;2023-04-06T12:58:44;9.00;99.90
23156;DHT22;11746;50.876;4.246;2023-04-06T13:01:12;9.20;99.90
23156;DHT22;11746;50.876;4.246;2023-04-06T13:03:38;9.20;99.90
23156;DHT22;11746;50.876;4.246;2023-04-06T13:06:04;9.30;99.90
23156;DHT22;11746;50.876;4.246;2023-04-06T13:08:30;9.30;99.90
23156;DHT22;11746;50.876;4.246;2023-04-06T13:10:58;9.20;99.90
23156;DHT22;11746;50.876;4.246;2023-04-06T13:13:26;9.30;99.90
23156;DHT22;11746;50.876;4.246;2023-04-06T13:15:53;9.30;99.90
23156;DHT22;11746;50.876;4.246;2023-04-06T13:18:19;9.30;99.90
23156;DHT22;11746;50.876;4.246;2023-04-06T13:20:49;9.40;99.90
23156;DHT22;11746;50.876;4.246;2023-04-06T13:23:17;9.30;99.90
23156;DHT22;11746;50.876;4.246;2023-04-06T13:25:42;9.30;99.90
23156;DHT22;11746;50.876;4.246;2023-04-06T13:28:08;9.40;99.90
23156;DHT22;11746;50.876;4.246;2023-04-06T13:30:38;9.30;99.90
23156;DHT22;11746;50.876;4.246;2023-04-06T13:33:06;9.50;99.90
23156;DHT22;11746;50.876;4.246;2023-04-06T13:35:32;9.50;99.90
23156;DHT22;11746;50.876;4.246;2023-04-06T13:37:59;9.50;99.90
23156;DHT22;11746;50.876;4.246;2023-04-06T13:40:24;9.50;99.90
23156;DHT22;11746;50.876;4.246;2023-04-06T13:42:50;9.40;99.90
23156;DHT22;11746;50.876;4.246;2023-04-06T13:45:16;9.50;99.90
23156;DHT22;11746;50.876;4.246;2023-04-06T13:47:45;9.50;99.90
23156;DHT22;11746;50.876;4.246;2023-04-06T13:50:11;9.50;99.90
23156;DHT22;11746;50.876;4.246;2023-04-06T13:52:36;9.40;99.90
23156;DHT22;11746;50.876;4.246;2023-04-06T13:55:02;9.60;99.90
23156;DHT22;11746;50.876;4.246;2023-04-06T13:57:28;9.60;99.90
23156;DHT22;11746;50.876;4.246;2023-04-06T13:59:56;9.60;99.90
23156;DHT22;11746;50.876;4.246;2023-04-06T14:02:21;9.50;99.90
23156;DHT22;11746;50.876;4.246;2023-04-06T14:04:52;9.50;99.90
23156;DHT22;11746;50.876;4.246;2023-04-06T14:07:20;9.60;99.90
23156;DHT22;11746;50.876;4.246;2023-04-06T14:09:47;9.50;99.90
23156;DHT22;11746;50.876;4.246;2023-04-06T14:12:12;9.60;99.90
23156;DHT22;11746;50.876;4.246;2023-04-06T14:14:40;9.60;99.90
23156;DHT22;11746;50.876;4.246;2023-04-06T14:17:06;9.60;99.90
23156;DHT22;11746;50.876;4.246;2023-04-06T14:19:31;9.60;99.90
23156;DHT22;11746;50.876;4.246;2023-04-06T14:21:57;9.60;99.90
23156;DHT22;11746;50.876;4.246;2023-04-06T14:24:23;9.60;99.90
23156;DHT22;11746;50.876;4.246;2023-04-06T14:26:51;9.50;99.90
23156;DHT22;11746;50.876;4.246;2023-04-06T14:29:16;9.60;99.90
23156;DHT22;11746;50.876;4.246;2023-04-06T14:31:42;9.70;99.90
23156;DHT22;11746;50.876;4.246;2023-04-06T14:34:10;9.70;99.90
23156;DHT22;11746;50.876;4.246;2023-04-06T14:36:38;9.70;99.90
23156;DHT22;11746;50.876;4.246;2023-04-06T14:39:07;9.70;99.90
23156;DHT22;11746;50.876;4.246;2023-04-06T14:41:33;9.70;99.90
23156;DHT22;11746;50.876;4.246;2023-04-06T14:44:01;9.60;99.90
23156;DHT22;11746;50.876;4.246;2023-04-06T14:46:27;9.70;99.90
23156;DHT22;11746;50.876;4.246;2023-04-06T14:48:57;9.80;99.90
23156;DHT22;11746;50.876;4.246;2023-04-06T14:51:26;9.70;99.90
23156;DHT22;11746;50.876;4.246;2023-04-06T14:53:57;9.80;99.90
23156;DHT22;11746;50.876;4.246;2023-04-06T14:56:23;9.90;99.90
23156;DHT22;11746;50.876;4.246;2023-04-06T14:58:50;10.10;99.90
23156;DHT22;11746;50.876;4.246;2023-04-06T15:01:19;10.20;99.90
23156;DHT22;11746;50.876;4.246;2023-04-06T15:03:47;10.30;99.90
23156;DHT22;11746;50.876;4.246;2023-04-06T15:06:17;10.50;99.90
23156;DHT22;11746;50.876;4.246;2023-04-06T15:08:43;10.40;99.90
23156;DHT22;11746;50.876;4.246;2023-04-06T15:11:11;10.40;99.90
23156;DHT22;11746;50.876;4.246;2023-04-06T15:13:37;10.50;99.90
23156;DHT22;11746;50.876;4.246;2023-04-06T15:16:03;10.60;99.90
23156;DHT22;11746;50.876;4.246;2023-04-06T15:18:29;10.50;99.90
23156;DHT22;11746;50.876;4.246;2023-04-06T15:20:57;10.50;99.90
23156;DHT22;11746;50.876;4.246;2023-04-06T15:23:23;10.60;99.90
23156;DHT22;11746;50.876;4.246;2023-04-06T15:25:48;10.70;99.90
23156;DHT22;11746;50.876;4.246;2023-04-06T15:28:19;10.60;99.90
23156;DHT22;11746;50.876;4.246;2023-04-06T15:30:47;10.60;99.90
23156;DHT22;11746;50.876;4.246;2023-04-06T15:33:13;10.50;99.90
23156;DHT22;11746;50.876;4.246;2023-04-06T15:35:44;10.50;99.90
23156;DHT22;11746;50.876;4.246;2023-04-06T15:38:12;10.60;99.90
23156;DHT22;11746;50.876;4.246;2023-04-06T15:40:48;10.70;99.90
23156;DHT22;11746;50.876;4.246;2023-04-06T15:43:14;10.80;99.90
23156;DHT22;11746;50.876;4.246;2023-04-06T15:45:40;10.90;99.90
23156;DHT22;11746;50.876;4.246;2023-04-06T15:48:06;10.90;99.90
23156;DHT22;11746;50.876;4.246;2023-04-06T15:50:33;10.90;99.90
23156;DHT22;11746;50.876;4.246;2023-04-06T15:52:59;10.90;99.90
23156;DHT22;11746;50.876;4.246;2023-04-06T15:55:27;10.80;99.90